Terminal Aerodrome Forecast
Issued by NWS

Home | Current Version | Previous Version | Graphics & Text | Print | Product List | Glossary On
Versions: 1 2 3 4 5 6 7 8 9 10 11 12 13 14
000
FTUS43 KGRB 190520
TAFMTW
TAF
KMTW 190520Z 1906/2006 31012G21KT P6SM OVC025
      TEMPO 1909/1913 BKN035
     FM191300 29012G18KT P6SM SCT035
     FM192200 26009KT P6SM SCT050 BKN090
     FM200400 25007KT P6SM SCT090=

USA.gov is the U.S. government's official web portal to all federal, state and local government web resources and services.